Andersonville, TN (37705)

3:25 PM EST on December 04, 2016 (GMT -0500)
Norris Farms | | Change Station

Elev 1073 ft 36.20 °N, 84.06 °W | Updated 59 seconds ago

Light Rain
Light Rain Mist
42.3 °F
Feels Like 42 °F
N
1.0
Wind Variable Wind from SSE
Gusts 0.0 mph

Today
High -- | Low -- °F
--% Chance of Precip.
Yesterday
High -- | Low -- °F
Precip. -- in
Pressure 30.00 in
Visibility 3.0 miles
Clouds Scattered Clouds 400 ft
Overcast 2500 ft
Windchill 42 °F
Dew Point 41 °F
Humidity 96%
Rainfall 0.68 in
Snow Depth Not available.
7:31 AM 5:21 PM
Waxing Crescent, 25% visible
SPECI KOQT 041957Z AUTO 00000KT 3SM -RA BR SCT004 OVC025 07/05 A3000 RMK AO2 P0000 T00670050
Pressure 30.00 in
Visibility 3.0 miles
Clouds Scattered Clouds 400 ft
Overcast 2500 ft
Windchill 42 °F
Dew Point 41 °F
Humidity 96%
Rainfall 0.68 in
Snow Depth Not available.
7:31 AM 5:21 PM
Waxing Crescent, 25% visible
SPECI KOQT 041957Z AUTO 00000KT 3SM -RA BR SCT004 OVC025 07/05 A3000 RMK AO2 P0000 T00670050

10-Day Weather Forecast

Almanac

Astronomy

Dec. 04, 2016 Rise Set
Actual Time
Civil Twilight
Nautical Twilight
Astronomical Twilight
Moon
Length of Visible Light
Length of Day
Tomorrow will be .
, % of the Moon is Illuminated

Today's Extremes

State Highs State Lows

Community

WunderPhotos

Upload Photos

1,955,661 photos uploaded!

WunderBlog® & News

Nearby

Air Quality

  Air Quality AQ Index Pollutant
Not available.

Snow Depth

Station Depth Elevation

Earthquake Activity

City Distance Mag. Time & Date
Minimum magnitude displayed is 2.5.

Coastal Water Temperatures

Place Temperature

Stations

Nearby Weather Stations

Station Location Temp. Windchill Dew Point Humidity Wind Precip. Elev Updated Type
                   

Watches & Warnings

There are currently no watches in effect.